Time;durP1;ratioP1;P1;durP2;ratioP2;P2;SDS_P1;SDS_P2;PMS_P1;PMS_P2;Temp;Humidity;BMP_temperature;BMP_pressure;BME280_temperature;BME280_humidity;BME280_pressure;Samples;Min_cycle;Max_cycle;Signal;HPM_P1;HPM_P2
2022/07/20 00:11:25;;;;;;;5.28;3.33;;;;;;;20.65;45.09;95226.53;4215802;28;20131;-57
2022/07/20 00:13:26;;;;;;;13.90;3.53;;;;;;;20.82;44.13;95224.25;4219119;28;20056;-56
2022/07/20 00:15:28;;;;;;;4.65;3.05;;;;;;;20.93;44.11;95232.59;4214068;28;20056;-55
2022/07/20 00:17:30;;;;;;;6.70;3.00;;;;;;;21.02;43.98;95229.47;4217270;28;20040;-51
2022/07/20 00:19:31;;;;;;;4.05;2.75;;;;;;;21.13;43.72;95221.88;4208144;28;20048;-55
2022/07/20 00:21:33;;;;;;;6.10;2.90;;;;;;;21.19;43.71;95223.69;4205097;28;20074;-52
2022/07/20 00:23:35;;;;;;;4.93;2.92;;;;;;;21.20;43.65;95225.31;4215541;28;20055;-52
2022/07/20 00:25:37;;;;;;;12.55;3.30;;;;;;;20.81;44.47;95221.78;4221957;28;20424;-56
2022/07/20 00:27:39;;;;;;;4.10;2.90;;;;;;;20.83;44.59;95220.53;4204942;28;20147;-57
2022/07/20 00:29:40;;;;;;;5.75;3.33;;;;;;;20.66;44.67;95220.16;4203787;28;20048;-55
2022/07/20 00:31:42;;;;;;;4.57;2.80;;;;;;;20.46;45.07;95225.53;4211604;28;20092;-54
2022/07/20 00:33:46;;;;;;;10.40;3.15;;;;;;;20.26;45.41;95216.72;4208978;28;20056;-53
2022/07/20 00:35:48;;;;;;;6.82;3.20;;;;;;;19.98;46.34;95223.13;4222106;28;20043;-55
2022/07/20 00:37:50;;;;;;;6.93;3.08;;;;;;;19.77;47.18;95221.47;4213595;28;20108;-53
2022/07/20 00:39:51;;;;;;;6.07;3.10;;;;;;;19.44;47.80;95222.22;4208914;28;20055;-55
2022/07/20 00:41:53;;;;;;;4.53;2.65;;;;;;;19.25;48.26;95222.94;4219643;28;20059;-56
2022/07/20 00:44:06;;;;;;;5.45;2.90;;;;;;;19.11;48.51;95231.91;4203160;28;20547;-52
2022/07/20 00:46:08;;;;;;;7.63;3.40;;;;;;;18.98;48.50;95235.34;4209961;28;20192;-54
2022/07/20 00:48:10;;;;;;;4.40;3.15;;;;;;;18.85;49.16;95227.31;4220546;28;20212;-54
2022/07/20 00:50:11;;;;;;;6.72;3.15;;;;;;;18.61;49.89;95234.72;4221737;28;20105;-54
2022/07/20 00:52:13;;;;;;;4.18;3.10;;;;;;;18.42;50.35;95230.94;4220904;28;20497;-54
2022/07/20 00:54:15;;;;;;;6.82;3.00;;;;;;;18.31;50.60;95237.59;4219795;28;20165;-54
2022/07/20 00:56:18;;;;;;;6.80;2.90;;;;;;;18.29;51.06;95241.47;4219867;28;20146;-53
2022/07/20 00:58:19;;;;;;;4.32;3.22;;;;;;;18.34;50.97;95229.25;4210931;28;20053;-56
2022/07/20 01:00:21;;;;;;;5.03;3.28;;;;;;;18.62;50.36;95231.03;4206595;28;20098;-55
2022/07/20 01:02:23;;;;;;;5.93;3.20;;;;;;;18.92;49.48;95230.81;4203968;28;20452;-54
2022/07/20 01:04:24;;;;;;;7.13;3.35;;;;;;;19.18;48.63;95232.75;4204674;28;20044;-55
2022/07/20 01:06:26;;;;;;;8.57;3.38;;;;;;;19.37;48.01;95225.84;4205026;28;20131;-52
2022/07/20 01:08:29;;;;;;;7.68;3.25;;;;;;;19.59;47.59;95226.50;4208624;28;20072;-53
2022/07/20 01:10:30;;;;;;;4.25;2.88;;;;;;;19.74;47.18;95227.16;4209805;28;20055;-54
2022/07/20 01:12:32;;;;;;;8.15;2.95;;;;;;;19.84;47.08;95226.78;4208203;28;20056;-53
2022/07/20 01:14:34;;;;;;;8.75;3.30;;;;;;;19.95;46.67;95223.50;4208690;28;20625;-51
2022/07/20 01:16:37;;;;;;;6.75;3.30;;;;;;;20.05;46.28;95223.94;4209801;28;20327;-54
2022/07/20 01:18:39;;;;;;;7.32;3.30;;;;;;;20.08;45.99;95225.34;4209967;28;20172;-56
2022/07/20 01:20:47;;;;;;;8.68;3.25;;;;;;;20.12;46.21;95223.13;4210599;28;20052;-53
2022/07/20 01:22:49;;;;;;;6.05;3.22;;;;;;;20.14;46.18;95223.72;4209373;28;20048;-54
2022/07/20 01:24:51;;;;;;;4.03;3.00;;;;;;;20.16;46.12;95225.16;4194720;28;20060;-54
2022/07/20 01:26:53;;;;;;;5.90;3.28;;;;;;;20.12;46.29;95225.78;4210003;28;20438;-53
2022/07/20 01:28:55;;;;;;;6.47;3.03;;;;;;;20.07;46.35;95222.88;4197590;28;20040;-53
2022/07/20 01:30:56;;;;;;;5.22;3.10;;;;;;;19.73;46.96;95222.91;4195376;28;20122;-52
2022/07/20 01:32:58;;;;;;;5.30;3.08;;;;;;;19.53;47.69;95220.19;4205348;28;20098;-51
2022/07/20 01:35:00;;;;;;;4.78;3.00;;;;;;;19.29;48.37;95220.72;4198532;28;20052;-54
2022/07/20 01:37:02;;;;;;;7.18;3.50;;;;;;;18.75;49.48;95225.78;4194802;28;20049;-52
2022/07/20 01:39:03;;;;;;;8.70;3.47;;;;;;;18.76;49.54;95224.78;4198326;28;20052;-53
2022/07/20 01:41:05;;;;;;;5.90;3.88;;;;;;;18.93;49.23;95219.16;4209121;28;20062;-55
2022/07/20 01:43:07;;;;;;;9.20;3.97;;;;;;;19.11;48.97;95211.47;4198925;28;20548;-52
2022/07/20 01:45:09;;;;;;;8.05;3.30;;;;;;;19.31;48.40;95211.53;4207950;28;20154;-53
2022/07/20 01:47:11;;;;;;;5.97;3.70;;;;;;;19.47;47.89;95213.00;4210837;28;20153;-52
2022/07/20 01:49:13;;;;;;;6.82;3.75;;;;;;;19.62;47.57;95208.34;4210423;28;20117;-55
2022/07/20 01:51:14;;;;;;;7.20;3.67;;;;;;;19.76;47.20;95219.81;4202630;28;20100;-51
2022/07/20 01:53:16;;;;;;;5.63;3.42;;;;;;;19.85;46.88;95215.13;4204236;28;20052;-54
2022/07/20 01:55:17;;;;;;;5.35;3.03;;;;;;;19.80;47.23;95220.25;4210385;28;20052;-54
2022/07/20 01:57:19;;;;;;;4.53;3.28;;;;;;;19.65;47.35;95218.53;4210186;28;20059;-53
2022/07/20 01:59:21;;;;;;;10.70;3.80;;;;;;;19.53;47.74;95225.50;4209127;28;20048;-57
2022/07/20 02:01:23;;;;;;;6.72;3.40;;;;;;;19.52;47.79;95223.03;4209845;28;20139;-55
2022/07/20 02:03:26;;;;;;;8.20;3.28;;;;;;;19.54;47.73;95226.31;4210585;28;20420;-53
2022/07/20 02:05:27;;;;;;;7.00;3.28;;;;;;;19.39;48.23;95227.28;4210333;28;20051;-53
2022/07/20 02:07:29;;;;;;;8.60;3.20;;;;;;;19.21;48.94;95227.88;4196295;28;20094;-55
2022/07/20 02:09:31;;;;;;;4.85;3.10;;;;;;;19.10;49.03;95235.56;4197166;28;20052;-54
2022/07/20 02:11:32;;;;;;;5.30;3.35;;;;;;;19.04;49.16;95229.25;4210192;28;20044;-55
2022/07/20 02:13:36;;;;;;;6.45;3.38;;;;;;;18.87;49.74;95238.56;4194990;28;20457;-55
2022/07/20 02:17:58;;;;;;;5.68;3.40;;;;;;;19.08;49.17;95242.91;4210298;28;20047;-51
2022/07/20 02:20:00;;;;;;;8.38;3.00;;;;;;;19.22;48.91;95236.66;4208916;28;20135;-54
2022/07/20 02:22:02;;;;;;;7.30;3.60;;;;;;;19.31;48.26;95237.28;4208820;28;20052;-53
2022/07/20 02:24:05;;;;;;;7.32;3.50;;;;;;;19.36;48.26;95241.00;4209709;28;20135;-54
2022/07/20 02:26:07;;;;;;;5.50;3.35;;;;;;;19.37;48.07;95236.50;4203900;28;20051;-56
2022/07/20 02:28:09;;;;;;;8.23;3.53;;;;;;;19.31;48.27;95238.09;4202767;28;20346;-54
2022/07/20 02:30:11;;;;;;;7.22;3.67;;;;;;;19.35;48.32;95235.88;4209643;28;20048;-55
2022/07/20 02:32:13;;;;;;;6.68;3.13;;;;;;;19.36;48.16;95240.16;4209466;28;20256;-56
2022/07/20 02:34:15;;;;;;;8.93;3.40;;;;;;;19.41;48.05;95235.06;4209578;28;20048;-54
2022/07/20 02:36:18;;;;;;;5.13;3.20;;;;;;;19.44;47.93;95238.16;4210248;28;20120;-57
2022/07/20 02:38:20;;;;;;;6.43;3.50;;;;;;;19.46;47.82;95235.28;4209782;28;20060;-55
2022/07/20 02:40:22;;;;;;;8.27;3.10;;;;;;;19.45;47.60;95233.66;4209609;28;20134;-55
2022/07/20 02:42:23;;;;;;;7.00;2.95;;;;;;;19.47;47.54;95234.28;4194294;28;20093;-54
2022/07/20 02:44:25;;;;;;;6.20;2.80;;;;;;;19.50;47.33;95230.38;4201896;28;20048;-54
2022/07/20 02:46:27;;;;;;;5.25;3.10;;;;;;;19.47;47.18;95236.94;4209664;28;20183;-54
2022/07/20 02:48:28;;;;;;;6.18;3.05;;;;;;;19.48;47.33;95245.72;4209308;28;20048;-54
2022/07/20 02:50:36;;;;;;;7.75;3.22;;;;;;;19.37;47.59;95241.81;4208819;28;20085;-55
2022/07/20 02:52:39;;;;;;;5.57;3.15;;;;;;;19.10;48.18;95252.34;4209572;28;20064;-55
2022/07/20 02:54:41;;;;;;;4.93;3.25;;;;;;;18.99;48.58;95245.78;4208673;28;20078;-56
2022/07/20 02:56:42;;;;;;;6.43;2.97;;;;;;;18.71;49.21;95247.63;4209870;28;20064;-56
2022/07/20 02:58:44;;;;;;;6.43;3.55;;;;;;;18.51;49.78;95252.81;4206555;28;20040;-55
2022/07/20 03:00:46;;;;;;;7.13;3.17;;;;;;;17.94;51.25;95257.28;4209711;28;20422;-55
2022/07/20 03:02:49;;;;;;;8.02;3.20;;;;;;;17.51;52.10;95257.25;4209332;28;20058;-55
2022/07/20 03:04:51;;;;;;;4.88;3.67;;;;;;;17.25;53.03;95252.50;4209515;28;20060;-53
2022/07/20 03:06:52;;;;;;;5.82;3.17;;;;;;;17.39;52.80;95252.47;4200131;28;20118;-53
2022/07/20 03:08:54;;;;;;;7.45;3.10;;;;;;;17.73;52.21;95250.97;4203830;28;20462;-53
2022/07/20 03:10:55;;;;;;;4.25;3.22;;;;;;;18.04;51.04;95255.13;4208845;28;20052;-54
2022/07/20 03:12:57;;;;;;;8.07;3.13;;;;;;;18.30;50.13;95257.16;4207946;28;20408;-55
2022/07/20 03:14:59;;;;;;;4.85;3.03;;;;;;;18.51;49.78;95266.09;4206144;28;20465;-54
2022/07/20 03:17:01;;;;;;;6.70;3.42;;;;;;;18.68;49.31;95258.66;4206102;28;20369;-55
2022/07/20 03:19:03;;;;;;;6.68;2.92;;;;;;;18.80;49.15;95257.13;4203844;28;20072;-54
2022/07/20 03:21:10;;;;;;;5.50;3.10;;;;;;;18.94;48.55;95260.63;4208536;28;20134;-53
2022/07/20 03:23:11;;;;;;;5.38;3.22;;;;;;;18.97;48.35;95258.41;4209045;28;20067;-53
2022/07/20 03:25:13;;;;;;;6.32;3.10;;;;;;;19.04;48.00;95261.09;4208618;28;20052;-53
2022/07/20 03:27:15;;;;;;;5.93;3.35;;;;;;;19.11;48.30;95263.78;4208976;28;20044;-53
2022/07/20 03:29:17;;;;;;;9.77;3.72;;;;;;;18.93;48.80;95272.25;4207533;28;20051;-52
2022/07/20 03:31:19;;;;;;;6.35;3.75;;;;;;;18.83;48.98;95270.78;4208235;28;20055;-54
2022/07/20 03:33:26;;;;;;;6.70;3.35;;;;;;;18.89;48.55;95273.69;4208614;28;20044;-54
2022/07/20 03:35:28;;;;;;;5.75;3.05;;;;;;;18.95;48.44;95273.72;4198885;28;20078;-53
2022/07/20 03:37:30;;;;;;;5.32;3.70;;;;;;;19.06;47.83;95271.50;4209175;28;20125;-53
2022/07/20 03:39:32;;;;;;;9.23;3.30;;;;;;;19.16;47.97;95280.75;4208378;28;20549;-51
2022/07/20 03:41:33;;;;;;;10.88;3.15;;;;;;;19.26;47.45;95276.91;4208512;28;20056;-53
2022/07/20 03:43:35;;;;;;;4.70;3.35;;;;;;;19.31;47.56;95275.28;4202862;28;20121;-52
2022/07/20 03:45:37;;;;;;;5.82;3.15;;;;;;;19.39;46.96;95276.97;4208761;28;20052;-53
2022/07/20 03:47:38;;;;;;;5.45;3.08;;;;;;;19.42;47.00;95276.53;4208846;28;20437;-52
2022/07/20 03:49:40;;;;;;;7.90;3.15;;;;;;;19.49;46.74;95273.91;4208871;28;20036;-52
2022/07/20 03:51:42;;;;;;;10.18;3.53;;;;;;;19.53;46.48;95273.34;4200259;28;20634;-53
2022/07/20 03:53:44;;;;;;;6.93;3.30;;;;;;;19.55;46.65;95279.25;4198511;28;20051;-50
2022/07/20 03:55:46;;;;;;;7.32;3.08;;;;;;;19.54;46.75;95277.63;4208633;28;20048;-53
2022/07/20 03:57:47;;;;;;;7.90;3.85;;;;;;;19.40;46.87;95282.09;4205612;28;20064;-51
2022/07/20 03:59:49;;;;;;;7.68;3.20;;;;;;;19.18;47.46;95286.69;4201943;28;20138;-50
2022/07/20 04:01:51;;;;;;;6.20;3.33;;;;;;;19.11;47.81;95285.84;4200201;28;20060;-52
2022/07/20 04:03:53;;;;;;;5.15;3.13;;;;;;;18.93;48.16;95282.88;4203386;28;20052;-52
2022/07/20 04:05:54;;;;;;;6.38;3.75;;;;;;;18.88;48.56;95282.66;4205217;28;20081;-49
2022/07/20 04:07:56;;;;;;;5.30;3.05;;;;;;;18.90;48.54;95286.75;4191183;28;20052;-53
2022/07/20 04:09:58;;;;;;;9.30;2.88;;;;;;;19.06;48.06;95290.09;4198434;28;20136;-52
2022/07/20 04:11:59;;;;;;;5.05;2.92;;;;;;;19.22;47.24;95292.44;4207536;28;20181;-53
2022/07/20 04:14:01;;;;;;;6.43;3.17;;;;;;;19.35;46.70;95281.84;4207285;28;20105;-56
2022/07/20 04:16:03;;;;;;;5.25;3.38;;;;;;;19.49;46.12;95282.72;4208214;28;20048;-54
2022/07/20 04:18:05;;;;;;;4.25;2.92;;;;;;;19.55;45.92;95281.09;4208538;28;20059;-55
2022/07/20 04:20:08;;;;;;;7.93;3.40;;;;;;;19.63;46.10;95278.25;4207790;28;20059;-54
2022/07/20 04:22:09;;;;;;;9.23;3.33;;;;;;;19.72;46.03;95282.38;4208930;28;20197;-52
2022/07/20 04:24:11;;;;;;;7.80;3.38;;;;;;;19.82;46.05;95284.66;4207786;28;20040;-53
2022/07/20 04:26:13;;;;;;;10.93;3.70;;;;;;;19.81;45.82;95285.66;4208720;28;20052;-54
2022/07/20 04:28:15;;;;;;;8.90;3.33;;;;;;;19.86;45.79;95285.91;4207319;28;20575;-56
2022/07/20 04:30:18;;;;;;;7.32;3.08;;;;;;;19.94;45.46;95280.38;4192991;28;20494;-54
2022/07/20 04:32:20;;;;;;;6.30;3.03;;;;;;;20.03;45.28;95281.81;4195411;28;20071;-53
2022/07/20 04:34:22;;;;;;;5.57;3.08;;;;;;;19.96;45.30;95288.97;4208852;28;20555;-54
2022/07/20 04:36:23;;;;;;;6.47;3.22;;;;;;;19.82;45.61;95295.28;4206077;28;20551;-54
2022/07/20 04:38:25;;;;;;;7.38;3.67;;;;;;;19.69;46.13;95289.94;4202854;28;20459;-56
2022/07/20 04:40:27;;;;;;;8.15;3.47;;;;;;;19.74;46.02;95295.47;4207664;28;20052;-55
2022/07/20 04:42:36;;;;;;;9.85;3.60;;;;;;;19.80;46.07;95295.47;4200283;28;20175;-53
2022/07/20 04:44:38;;;;;;;7.45;3.53;;;;;;;19.80;45.74;95295.47;4203976;28;20052;-54
2022/07/20 04:46:40;;;;;;;6.30;3.13;;;;;;;19.50;46.29;95299.47;4196263;28;20137;-55
2022/07/20 04:48:41;;;;;;;5.10;3.33;;;;;;;19.36;46.60;95298.59;4198159;28;20054;-54
2022/07/20 04:50:43;;;;;;;7.38;3.83;;;;;;;19.22;47.18;95303.84;4211773;28;20522;-54
2022/07/20 04:52:45;;;;;;;11.50;3.38;;;;;;;19.15;47.64;95307.53;4211349;28;20055;-50
2022/07/20 04:54:47;;;;;;;8.23;3.80;;;;;;;19.13;47.84;95304.25;4211543;28;20060;-53
2022/07/20 04:56:49;;;;;;;4.93;3.42;;;;;;;19.27;47.50;95310.41;4211120;28;20058;-54
2022/07/20 04:58:53;;;;;;;7.33;3.27;;;;;;;19.27;47.34;95310.41;4209748;28;20044;-54
2022/07/20 05:00:55;;;;;;;7.05;3.38;;;;;;;19.21;47.48;95310.19;4211919;28;20284;-54
2022/07/20 05:02:56;;;;;;;7.38;3.15;;;;;;;19.37;47.05;95303.72;4211206;28;20509;-52
2022/07/20 05:04:58;;;;;;;9.52;3.10;;;;;;;19.61;46.76;95306.84;4211304;28;20129;-53
2022/07/20 05:07:00;;;;;;;7.32;3.38;;;;;;;19.83;46.34;95308.41;4210327;28;20063;-54
2022/07/20 05:09:03;;;;;;;9.80;3.55;;;;;;;20.05;45.50;95297.59;4210088;28;20060;-55
2022/07/20 05:11:05;;;;;;;9.63;3.45;;;;;;;20.21;44.99;95307.00;4211440;28;20121;-55
2022/07/20 05:13:12;;;;;;;7.80;3.30;;;;;;;20.34;44.89;95309.66;4195833;28;20490;-56
2022/07/20 05:15:13;;;;;;;9.32;3.33;;;;;;;20.45;44.64;95309.03;4207586;28;20675;-55
2022/07/20 05:17:15;;;;;;;10.68;3.30;;;;;;;20.58;44.62;95312.75;4211259;28;20489;-54
2022/07/20 05:19:17;;;;;;;6.72;3.75;;;;;;;20.65;44.46;95309.06;4210436;28;20055;-55
2022/07/20 05:21:19;;;;;;;10.50;3.72;;;;;;;20.51;44.66;95319.88;4211669;28;20101;-53
2022/07/20 05:23:20;;;;;;;11.40;3.47;;;;;;;20.27;45.12;95314.16;4210496;28;20048;-55
2022/07/20 05:25:22;;;;;;;7.50;3.70;;;;;;;20.08;46.01;95314.97;4210582;28;20047;-56
2022/07/20 05:27:30;;;;;;;9.45;3.50;;;;;;;20.09;46.15;95312.13;4211209;28;20131;-52
2022/07/20 05:29:31;;;;;;;10.55;3.95;;;;;;;20.31;45.94;95311.91;4209537;28;20106;-55
2022/07/20 05:31:33;;;;;;;7.43;3.60;;;;;;;20.56;45.23;95307.59;4210431;28;20048;-54
2022/07/20 05:33:36;;;;;;;8.20;3.78;;;;;;;20.61;44.90;95312.34;4210986;28;20159;-56
2022/07/20 05:35:38;;;;;;;18.40;4.15;;;;;;;20.61;44.92;95312.34;4210232;28;20489;-55
2022/07/20 05:37:39;;;;;;;8.52;3.72;;;;;;;20.57;44.98;95319.06;4209844;28;20044;-53
2022/07/20 05:39:41;;;;;;;10.25;4.15;;;;;;;20.65;44.88;95318.91;4210403;28;20046;-57
2022/07/20 05:41:43;;;;;;;7.43;3.97;;;;;;;20.80;44.47;95316.81;4209238;28;20056;-57
2022/07/20 05:43:44;;;;;;;10.23;3.47;;;;;;;20.83;44.70;95310.25;4194996;28;20409;-55
2022/07/20 05:45:46;;;;;;;9.60;3.33;;;;;;;20.89;44.33;95316.56;4206397;28;20257;-55
2022/07/20 05:47:48;;;;;;;7.07;3.67;;;;;;;21.04;44.24;95311.84;4208663;28;20647;-55
2022/07/20 05:49:50;;;;;;;8.82;3.47;;;;;;;21.20;43.80;95313.22;4211188;28;20044;-53
2022/07/20 05:51:51;;;;;;;10.85;4.22;;;;;;;21.33;43.86;95305.19;4210299;28;20048;-55
2022/07/20 05:53:53;;;;;;;12.45;3.58;;;;;;;21.46;43.49;95309.69;4200381;28;20406;-55
2022/07/20 05:55:55;;;;;;;4.43;3.17;;;;;;;21.57;43.04;95316.19;4210837;28;20052;-54
2022/07/20 05:57:57;;;;;;;8.32;3.55;;;;;;;21.68;42.74;95316.34;4209178;28;20059;-55
2022/07/20 05:59:58;;;;;;;8.70;4.05;;;;;;;21.79;42.90;95314.84;4210310;28;20052;-54
2022/07/20 06:02:00;;;;;;;10.57;3.58;;;;;;;21.82;42.73;95314.41;4209376;28;20066;-55
2022/07/20 06:04:02;;;;;;;5.72;3.72;;;;;;;21.76;42.82;95311.78;4209980;28;20125;-55
2022/07/20 06:06:04;;;;;;;12.50;3.85;;;;;;;21.78;42.75;95320.41;4208329;28;20048;-54
2022/07/20 06:08:06;;;;;;;6.85;3.25;;;;;;;21.86;42.57;95318.28;4198267;28;20129;-54
2022/07/20 06:10:08;;;;;;;17.38;3.92;;;;;;;22.00;42.04;95313.69;4204925;28;20128;-57
2022/07/20 06:12:10;;;;;;;8.50;3.40;;;;;;;21.83;42.48;95315.22;4210363;28;20048;-53
2022/07/20 06:14:12;;;;;;;8.27;3.60;;;;;;;21.85;42.72;95315.84;4207814;28;20040;-55
2022/07/20 06:16:13;;;;;;;9.30;3.50;;;;;;;21.82;42.35;95326.94;4209621;28;20139;-55
2022/07/20 06:18:15;;;;;;;7.38;3.45;;;;;;;21.72;42.59;95314.06;4210096;28;20063;-54
2022/07/20 06:20:24;;;;;;;10.02;3.63;;;;;;;21.77;42.72;95326.75;4199597;28;20131;-54
2022/07/20 06:22:25;;;;;;;7.72;3.22;;;;;;;21.93;42.49;95320.91;4204491;28;20063;-53
2022/07/20 06:24:27;;;;;;;10.35;3.60;;;;;;;22.09;42.66;95324.91;4209837;28;20074;-55
2022/07/20 06:26:29;;;;;;;7.38;3.78;;;;;;;22.29;42.14;95319.47;4195839;28;20121;-53
2022/07/20 06:28:31;;;;;;;5.75;3.28;;;;;;;22.46;41.81;95320.56;4207960;28;20450;-55
2022/07/20 06:30:33;;;;;;;5.90;3.45;;;;;;;22.41;41.80;95317.75;4209840;28;20044;-54
2022/07/20 06:32:34;;;;;;;5.07;3.30;;;;;;;22.53;41.45;95319.72;4209820;28;20133;-55
2022/07/20 06:34:36;;;;;;;6.53;3.75;;;;;;;22.60;41.35;95317.78;4202069;28;20052;-56
2022/07/20 06:36:38;;;;;;;10.55;4.05;;;;;;;22.53;41.35;95320.53;4207351;28;20044;-53
2022/07/20 06:38:39;;;;;;;9.50;4.07;;;;;;;22.46;41.53;95315.25;4209247;28;20040;-56
2022/07/20 06:40:42;;;;;;;6.28;3.63;;;;;;;22.55;41.63;95312.31;4209971;28;20137;-54
2022/07/20 06:42:43;;;;;;;10.30;3.72;;;;;;;22.55;41.31;95307.78;4210393;28;20060;-55
2022/07/20 06:44:45;;;;;;;5.88;3.17;;;;;;;22.70;41.11;95308.25;4207688;28;20097;-58
2022/07/20 06:46:47;;;;;;;12.38;4.32;;;;;;;22.89;41.07;95311.75;4208914;28;20056;-58
2022/07/20 06:48:54;;;;;;;7.25;4.05;;;;;;;23.05;40.67;95301.56;4209774;28;20105;-57
2022/07/20 06:50:56;;;;;;;11.48;4.32;;;;;;;23.15;40.34;95304.53;4209310;28;20409;-54
2022/07/20 06:52:57;;;;;;;9.65;4.07;;;;;;;23.31;40.09;95303.91;4209452;28;20059;-54
2022/07/20 06:54:59;;;;;;;7.78;3.65;;;;;;;23.44;39.98;95299.47;4209729;28;20060;-56
2022/07/20 06:57:01;;;;;;;8.75;3.63;;;;;;;23.57;39.47;95301.97;4208661;28;20052;-54
2022/07/20 06:59:02;;;;;;;9.40;3.78;;;;;;;23.69;39.37;95307.38;4202021;28;20053;-53
2022/07/20 07:01:04;;;;;;;9.60;3.95;;;;;;;23.77;39.03;95307.09;4200819;28;20060;-53
2022/07/20 07:03:06;;;;;;;13.90;3.92;;;;;;;23.84;39.24;95298.97;4209259;28;20051;-54
2022/07/20 07:05:09;;;;;;;8.57;4.05;;;;;;;23.93;39.05;95292.25;4209346;28;20047;-54
2022/07/20 07:07:10;;;;;;;9.10;3.97;;;;;;;23.91;38.53;95299.69;4196891;28;20048;-55
2022/07/20 07:09:12;;;;;;;7.63;3.38;;;;;;;23.81;39.59;95299.41;4191851;28;20114;-54
2022/07/20 07:11:14;;;;;;;7.95;4.20;;;;;;;23.64;39.34;95297.38;4203524;28;20114;-55
2022/07/20 07:13:16;;;;;;;8.55;4.00;;;;;;;23.34;40.06;95296.50;4206655;28;20704;-54
2022/07/20 07:15:18;;;;;;;6.03;3.78;;;;;;;23.34;40.30;95296.50;4206669;28;20109;-54
2022/07/20 07:17:20;;;;;;;7.18;3.88;;;;;;;23.43;39.89;95293.31;4207845;28;20582;-54
2022/07/20 07:19:22;;;;;;;10.27;4.13;;;;;;;23.46;39.52;95292.84;4209348;28;20040;-53
2022/07/20 07:21:24;;;;;;;7.57;3.83;;;;;;;23.59;40.04;95296.41;4208746;28;20056;-59
2022/07/20 07:23:25;;;;;;;12.57;5.93;;;;;;;23.78;39.34;95286.50;4209191;28;20060;-56
2022/07/20 07:25:27;;;;;;;9.05;4.50;;;;;;;23.93;39.14;95286.91;4195324;28;20067;-56
2022/07/20 07:27:30;;;;;;;6.93;4.13;;;;;;;24.01;39.01;95297.28;4206798;28;20047;-58
2022/07/20 07:29:32;;;;;;;17.50;6.28;;;;;;;23.96;38.79;95286.44;4207947;28;20101;-54
2022/07/20 07:31:40;;;;;;;10.18;4.80;;;;;;;23.83;39.20;95287.47;4190801;28;20123;-53
2022/07/20 07:33:43;;;;;;;8.77;4.05;;;;;;;23.84;39.36;95296.31;4206368;28;20060;-56
2022/07/20 07:35:44;;;;;;;11.45;3.50;;;;;;;23.97;38.92;95285.41;4209362;28;20105;-55
2022/07/20 07:37:46;;;;;;;14.15;6.70;;;;;;;24.00;38.59;95279.59;4209591;28;20097;-56
2022/07/20 07:39:49;;;;;;;11.07;5.00;;;;;;;24.12;38.67;95284.97;4207864;28;20044;-54
2022/07/20 07:41:50;;;;;;;8.77;4.80;;;;;;;24.18;39.32;95277.88;4206510;28;20044;-56
2022/07/20 07:43:52;;;;;;;9.85;4.50;;;;;;;24.25;38.64;95281.28;4190297;28;20056;-55
2022/07/20 07:45:54;;;;;;;6.78;3.90;;;;;;;24.36;38.01;95280.47;4201310;28;20124;-55
2022/07/20 07:47:55;;;;;;;10.75;4.05;;;;;;;24.44;38.12;95282.81;4206996;28;20254;-55
2022/07/20 07:49:57;;;;;;;6.28;3.55;;;;;;;24.44;37.80;95274.78;4206911;28;20052;-59
2022/07/20 07:51:59;;;;;;;5.07;3.70;;;;;;;24.08;38.21;95286.47;4208369;28;20124;-54
2022/07/20 07:54:01;;;;;;;7.35;3.60;;;;;;;23.89;38.55;95281.19;4198665;28;20113;-54
2022/07/20 07:56:03;;;;;;;6.40;3.60;;;;;;;23.98;38.04;95279.00;4208364;28;20071;-56
2022/07/20 07:58:06;;;;;;;13.70;3.63;;;;;;;23.94;38.00;95277.00;4206732;28;20056;-55
2022/07/20 08:00:08;;;;;;;;;;;;;;;23.97;38.23;95277.38;4208875;28;20048;-55
2022/07/20 08:02:10;;;;;;;9.23;3.72;;;;;;;24.15;38.11;95283.69;4194871;28;19924;-55
2022/07/20 08:04:12;;;;;;;7.72;4.32;;;;;;;24.38;37.78;95283.75;4208408;28;20055;-54
2022/07/20 08:06:13;;;;;;;8.23;3.60;;;;;;;24.61;37.07;95274.13;4205131;28;20059;-53
2022/07/20 08:08:16;;;;;;;4.60;3.05;;;;;;;24.88;36.24;95269.09;4197779;28;20421;-53
2022/07/20 08:10:17;;;;;;;8.32;3.25;;;;;;;25.05;36.07;95266.53;4209090;28;20373;-55
2022/07/20 08:12:20;;;;;;;10.80;3.60;;;;;;;25.22;35.40;95267.44;4208481;28;20043;-55
2022/07/20 08:14:22;;;;;;;7.20;3.25;;;;;;;25.39;34.99;95269.41;4207474;28;20286;-55
2022/07/20 08:16:24;;;;;;;3.88;2.67;;;;;;;25.10;34.63;95264.78;4207714;28;20070;-56
2022/07/20 08:18:26;;;;;;;6.05;3.13;;;;;;;25.25;34.86;95260.78;4207747;28;20056;-56
2022/07/20 08:20:28;;;;;;;5.18;2.88;;;;;;;25.45;34.52;95260.41;4211819;28;20044;-54
2022/07/20 08:22:29;;;;;;;8.50;3.13;;;;;;;25.50;34.39;95258.63;4211966;28;20044;-54
2022/07/20 08:24:31;;;;;;;5.70;2.33;;;;;;;25.68;33.33;95259.47;4211444;28;20052;-56
2022/07/20 08:26:33;;;;;;;4.25;2.13;;;;;;;25.49;32.72;95254.31;4212101;28;20505;-54
2022/07/20 08:28:34;;;;;;;5.88;2.50;;;;;;;25.60;33.64;95252.63;4209901;28;20074;-54
2022/07/20 08:30:38;;;;;;;22.27;16.67;;;;;;;25.82;34.02;95254.66;4211149;28;20125;-54
2022/07/20 08:32:54;;;;;;;8.15;2.80;;;;;;;26.11;33.72;95253.59;4212122;28;20063;-55
2022/07/20 08:34:55;;;;;;;6.53;2.80;;;;;;;26.37;32.99;95256.66;4211165;28;20081;-55
2022/07/20 08:36:57;;;;;;;7.65;2.63;;;;;;;26.62;32.78;95256.28;4204909;28;20502;-54
2022/07/20 08:38:59;;;;;;;5.15;2.53;;;;;;;26.76;32.04;95256.75;4209386;28;20051;-53
2022/07/20 08:41:02;;;;;;;5.72;1.83;;;;;;;26.84;30.86;95259.00;4211140;28;20521;-52
2022/07/20 08:43:04;;;;;;;4.70;2.20;;;;;;;26.92;31.29;95247.03;4196540;28;20056;-58
2022/07/20 08:45:06;;;;;;;4.63;2.05;;;;;;;27.06;31.10;95253.69;4210704;28;20048;-55
2022/07/20 08:47:12;;;;;;;3.97;2.65;;;;;;;27.12;30.90;95252.66;4211045;28;20040;-53
2022/07/20 08:49:14;;;;;;;4.07;2.10;;;;;;;27.22;30.00;95246.63;4211388;28;20067;-54
2022/07/20 08:51:16;;;;;;;5.63;2.38;;;;;;;27.32;30.06;95245.97;4210520;28;20113;-55
2022/07/20 08:53:19;;;;;;;10.77;2.20;;;;;;;27.34;29.57;95244.63;4211371;28;20056;-55
2022/07/20 08:55:21;;;;;;;4.88;1.92;;;;;;;27.10;29.04;95249.44;4210910;28;20142;-56
2022/07/20 08:57:22;;;;;;;5.18;2.03;;;;;;;26.85;29.85;95247.19;4209462;28;20050;-59
2022/07/20 08:59:24;;;;;;;3.13;1.95;;;;;;;26.91;29.58;95251.59;4209845;28;20062;-56
2022/07/20 09:01:26;;;;;;;4.43;2.03;;;;;;;27.08;29.91;95240.78;4211535;28;20117;-57
2022/07/20 09:03:28;;;;;;;4.43;2.20;;;;;;;27.05;29.61;95243.16;4210985;28;20052;-57
2022/07/20 09:05:36;;;;;;;4.60;2.00;;;;;;;26.75;30.29;95250.53;4210371;28;20068;-54
2022/07/20 09:07:40;;;;;;;3.25;1.80;;;;;;;26.85;30.09;95241.81;4201050;28;20055;-55
2022/07/20 09:09:42;;;;;;;6.97;1.92;;;;;;;26.97;30.35;95241.69;4206123;28;20148;-51
2022/07/20 09:11:52;;;;;;;4.90;1.70;;;;;;;27.21;29.84;95234.22;4207020;28;20056;-54
2022/07/20 09:13:53;;;;;;;4.60;2.17;;;;;;;27.41;29.68;95235.56;4198468;28;20056;-55
2022/07/20 09:15:56;;;;;;;7.85;2.40;;;;;;;27.48;30.23;95236.97;4209014;28;20126;-53
2022/07/20 09:18:16;;;;;;;8.60;2.37;;;;;;;27.63;29.83;95232.84;4209421;28;20131;-53
2022/07/20 09:20:18;;;;;;;10.32;2.53;;;;;;;27.78;29.90;95236.50;4209802;28;20113;-52
2022/07/20 09:22:35;;;;;;;6.45;2.35;;;;;;;27.94;28.86;95232.09;4210993;28;20055;-51
2022/07/20 09:24:37;;;;;;;5.78;2.03;;;;;;;27.94;29.12;95231.28;4210086;28;20052;-54
2022/07/20 09:26:39;;;;;;;4.97;2.60;;;;;;;28.05;29.09;95237.56;4211148;28;20060;-50
2022/07/20 09:28:45;;;;;;;4.43;1.88;;;;;;;28.17;28.36;95230.94;4208323;28;20105;-55
2022/07/20 09:30:55;;;;;;;5.13;2.00;;;;;;;28.18;28.40;95229.91;4209669;28;20052;-54
2022/07/20 09:33:03;;;;;;;7.65;2.63;;;;;;;28.24;28.53;95221.84;4210341;28;20052;-55
2022/07/20 09:35:05;;;;;;;9.70;2.22;;;;;;;28.34;28.59;95221.94;4210933;28;20064;-55
2022/07/20 09:37:16;;;;;;;3.97;2.03;;;;;;;28.34;28.70;95216.53;4210098;28;20059;-56
2022/07/20 09:39:20;;;;;;;6.80;2.25;;;;;;;28.39;28.94;95217.41;4209664;28;20472;-55
2022/07/20 09:41:26;;;;;;;16.05;12.18;;;;;;;28.47;28.53;95221.47;4210345;28;20565;-53
2022/07/20 09:43:34;;;;;;;5.63;2.00;;;;;;;28.43;28.11;95216.88;4194638;28;20048;-54
2022/07/20 09:45:36;;;;;;;3.20;1.90;;;;;;;28.02;28.51;95216.53;4210518;28;20051;-57
2022/07/20 09:48:07;;;;;;;5.70;1.80;;;;;;;27.69;28.48;95208.41;4210007;28;20044;-54